sensor_id;sensor_type;location;lat;lon;timestamp;P1;durP1;ratioP1;P2;durP2;ratioP2
59308;SDS011;48433;53.016;-2.260;2022-10-17T00:00:51;8.75;;;3.90;;
59308;SDS011;48433;53.016;-2.260;2022-10-17T00:03:18;7.57;;;3.92;;
59308;SDS011;48433;53.016;-2.260;2022-10-17T00:05:46;8.85;;;3.83;;
59308;SDS011;48433;53.016;-2.260;2022-10-17T00:08:15;9.55;;;3.42;;
59308;SDS011;48433;53.016;-2.260;2022-10-17T00:10:44;8.73;;;4.72;;
59308;SDS011;48433;53.016;-2.260;2022-10-17T00:13:11;9.48;;;4.05;;
59308;SDS011;48433;53.016;-2.260;2022-10-17T00:15:41;8.50;;;3.40;;
59308;SDS011;48433;53.016;-2.260;2022-10-17T00:18:10;8.55;;;2.75;;
59308;SDS011;48433;53.016;-2.260;2022-10-17T00:20:38;7.00;;;2.83;;
59308;SDS011;48433;53.016;-2.260;2022-10-17T00:23:06;9.20;;;3.00;;
59308;SDS011;48433;53.016;-2.260;2022-10-17T00:25:33;7.90;;;2.83;;
59308;SDS011;48433;53.016;-2.260;2022-10-17T00:28:01;8.70;;;2.47;;
59308;SDS011;48433;53.016;-2.260;2022-10-17T00:30:29;7.53;;;2.30;;
59308;SDS011;48433;53.016;-2.260;2022-10-17T00:32:58;8.93;;;2.13;;
59308;SDS011;48433;53.016;-2.260;2022-10-17T00:35:26;7.05;;;2.35;;
59308;SDS011;48433;53.016;-2.260;2022-10-17T00:37:53;11.32;;;2.42;;
59308;SDS011;48433;53.016;-2.260;2022-10-17T00:40:21;8.38;;;2.30;;
59308;SDS011;48433;53.016;-2.260;2022-10-17T00:42:49;8.60;;;2.33;;
59308;SDS011;48433;53.016;-2.260;2022-10-17T00:47:53;8.23;;;2.08;;
59308;SDS011;48433;53.016;-2.260;2022-10-17T00:50:26;9.20;;;3.13;;
59308;SDS011;48433;53.016;-2.260;2022-10-17T00:52:55;7.07;;;2.30;;
59308;SDS011;48433;53.016;-2.260;2022-10-17T00:55:29;8.55;;;2.17;;
59308;SDS011;48433;53.016;-2.260;2022-10-17T00:57:59;6.90;;;2.00;;
59308;SDS011;48433;53.016;-2.260;2022-10-17T01:00:29;7.05;;;2.13;;
59308;SDS011;48433;53.016;-2.260;2022-10-17T01:02:57;6.22;;;2.00;;
59308;SDS011;48433;53.016;-2.260;2022-10-17T01:05:25;9.73;;;2.33;;
59308;SDS011;48433;53.016;-2.260;2022-10-17T01:07:54;8.50;;;2.25;;
59308;SDS011;48433;53.016;-2.260;2022-10-17T01:10:23;7.10;;;1.70;;
59308;SDS011;48433;53.016;-2.260;2022-10-17T01:13:04;9.60;;;2.60;;
59308;SDS011;48433;53.016;-2.260;2022-10-17T01:18:50;8.65;;;2.15;;
59308;SDS011;48433;53.016;-2.260;2022-10-17T01:21:46;8.18;;;2.13;;
59308;SDS011;48433;53.016;-2.260;2022-10-17T01:34:58;14.80;;;2.95;;
59308;SDS011;48433;53.016;-2.260;2022-10-17T01:37:58;5.55;;;1.90;;
59308;SDS011;48433;53.016;-2.260;2022-10-17T01:46:02;8.27;;;1.83;;
59308;SDS011;48433;53.016;-2.260;2022-10-17T01:48:52;8.43;;;1.40;;
59308;SDS011;48433;53.016;-2.260;2022-10-17T01:51:29;4.72;;;1.23;;
59308;SDS011;48433;53.016;-2.260;2022-10-17T01:54:01;4.72;;;1.50;;
59308;SDS011;48433;53.016;-2.260;2022-10-17T01:56:51;7.30;;;1.80;;
59308;SDS011;48433;53.016;-2.260;2022-10-17T01:59:25;4.22;;;1.40;;
59308;SDS011;48433;53.016;-2.260;2022-10-17T02:02:00;8.90;;;1.98;;
59308;SDS011;48433;53.016;-2.260;2022-10-17T02:04:28;6.35;;;1.67;;
59308;SDS011;48433;53.016;-2.260;2022-10-17T02:06:56;5.05;;;1.48;;
59308;SDS011;48433;53.016;-2.260;2022-10-17T02:09:31;5.43;;;1.55;;
59308;SDS011;48433;53.016;-2.260;2022-10-17T02:25:47;7.43;;;1.75;;
59308;SDS011;48433;53.016;-2.260;2022-10-17T02:28:41;5.25;;;1.75;;
59308;SDS011;48433;53.016;-2.260;2022-10-17T02:31:31;8.98;;;1.70;;
59308;SDS011;48433;53.016;-2.260;2022-10-17T02:36:57;7.30;;;1.63;;
59308;SDS011;48433;53.016;-2.260;2022-10-17T02:39:26;9.27;;;2.05;;
59308;SDS011;48433;53.016;-2.260;2022-10-17T02:41:57;8.10;;;1.98;;
59308;SDS011;48433;53.016;-2.260;2022-10-17T02:44:28;10.00;;;1.88;;
59308;SDS011;48433;53.016;-2.260;2022-10-17T02:47:07;5.80;;;1.50;;
59308;SDS011;48433;53.016;-2.260;2022-10-17T02:49:52;7.40;;;1.83;;
59308;SDS011;48433;53.016;-2.260;2022-10-17T02:52:35;7.20;;;2.30;;
59308;SDS011;48433;53.016;-2.260;2022-10-17T02:55:22;8.95;;;1.90;;
59308;SDS011;48433;53.016;-2.260;2022-10-17T02:58:07;10.98;;;2.25;;
59308;SDS011;48433;53.016;-2.260;2022-10-17T03:00:42;4.90;;;1.80;;
59308;SDS011;48433;53.016;-2.260;2022-10-17T03:03:19;9.73;;;2.20;;
59308;SDS011;48433;53.016;-2.260;2022-10-17T03:05:50;11.93;;;2.65;;
59308;SDS011;48433;53.016;-2.260;2022-10-17T03:08:21;12.45;;;2.92;;
59308;SDS011;48433;53.016;-2.260;2022-10-17T03:10:49;8.73;;;2.45;;
59308;SDS011;48433;53.016;-2.260;2022-10-17T03:13:18;12.75;;;3.47;;
59308;SDS011;48433;53.016;-2.260;2022-10-17T03:15:45;8.90;;;2.67;;
59308;SDS011;48433;53.016;-2.260;2022-10-17T03:18:13;12.02;;;2.83;;
59308;SDS011;48433;53.016;-2.260;2022-10-17T03:20:41;12.38;;;3.08;;
59308;SDS011;48433;53.016;-2.260;2022-10-17T03:23:09;11.43;;;2.90;;
59308;SDS011;48433;53.016;-2.260;2022-10-17T03:25:36;11.63;;;2.92;;
59308;SDS011;48433;53.016;-2.260;2022-10-17T03:28:04;8.75;;;2.78;;
59308;SDS011;48433;53.016;-2.260;2022-10-17T03:30:32;10.45;;;2.50;;
59308;SDS011;48433;53.016;-2.260;2022-10-17T03:33:00;8.57;;;2.50;;
59308;SDS011;48433;53.016;-2.260;2022-10-17T03:35:28;10.15;;;2.30;;
59308;SDS011;48433;53.016;-2.260;2022-10-17T03:37:56;11.57;;;2.60;;
59308;SDS011;48433;53.016;-2.260;2022-10-17T03:40:25;12.05;;;2.50;;
59308;SDS011;48433;53.016;-2.260;2022-10-17T03:42:53;9.75;;;2.88;;
59308;SDS011;48433;53.016;-2.260;2022-10-17T03:45:21;15.43;;;2.67;;
59308;SDS011;48433;53.016;-2.260;2022-10-17T03:47:48;11.38;;;2.15;;
59308;SDS011;48433;53.016;-2.260;2022-10-17T03:50:17;12.55;;;2.38;;
59308;SDS011;48433;53.016;-2.260;2022-10-17T03:52:45;10.23;;;2.00;;
59308;SDS011;48433;53.016;-2.260;2022-10-17T03:55:14;13.23;;;2.33;;
59308;SDS011;48433;53.016;-2.260;2022-10-17T03:57:42;10.73;;;1.80;;
59308;SDS011;48433;53.016;-2.260;2022-10-17T04:00:12;8.18;;;2.30;;
59308;SDS011;48433;53.016;-2.260;2022-10-17T04:02:40;9.50;;;2.17;;
59308;SDS011;48433;53.016;-2.260;2022-10-17T04:05:14;10.32;;;2.63;;
59308;SDS011;48433;53.016;-2.260;2022-10-17T04:07:41;9.88;;;2.13;;
59308;SDS011;48433;53.016;-2.260;2022-10-17T04:10:10;13.57;;;2.38;;
59308;SDS011;48433;53.016;-2.260;2022-10-17T04:12:39;14.10;;;2.53;;
59308;SDS011;48433;53.016;-2.260;2022-10-17T04:15:06;14.93;;;3.28;;
59308;SDS011;48433;53.016;-2.260;2022-10-17T04:17:35;7.90;;;2.13;;
59308;SDS011;48433;53.016;-2.260;2022-10-17T04:20:05;8.77;;;2.08;;
59308;SDS011;48433;53.016;-2.260;2022-10-17T04:22:33;13.75;;;3.13;;
59308;SDS011;48433;53.016;-2.260;2022-10-17T04:25:03;9.68;;;1.95;;
59308;SDS011;48433;53.016;-2.260;2022-10-17T04:27:37;11.48;;;2.42;;
59308;SDS011;48433;53.016;-2.260;2022-10-17T04:30:05;12.00;;;3.28;;
59308;SDS011;48433;53.016;-2.260;2022-10-17T04:32:37;13.15;;;2.10;;
59308;SDS011;48433;53.016;-2.260;2022-10-17T04:35:10;11.13;;;2.00;;
59308;SDS011;48433;53.016;-2.260;2022-10-17T04:37:42;15.15;;;2.80;;
59308;SDS011;48433;53.016;-2.260;2022-10-17T04:40:16;11.82;;;3.05;;
59308;SDS011;48433;53.016;-2.260;2022-10-17T04:42:45;13.85;;;1.98;;
59308;SDS011;48433;53.016;-2.260;2022-10-17T04:45:17;12.80;;;3.72;;
59308;SDS011;48433;53.016;-2.260;2022-10-17T04:47:46;17.02;;;2.67;;
59308;SDS011;48433;53.016;-2.260;2022-10-17T04:50:14;8.23;;;2.50;;
59308;SDS011;48433;53.016;-2.260;2022-10-17T04:52:51;14.80;;;2.58;;
59308;SDS011;48433;53.016;-2.260;2022-10-17T04:55:18;12.60;;;2.45;;
59308;SDS011;48433;53.016;-2.260;2022-10-17T04:57:46;15.02;;;3.00;;
59308;SDS011;48433;53.016;-2.260;2022-10-17T05:00:19;12.77;;;2.83;;
59308;SDS011;48433;53.016;-2.260;2022-10-17T05:03:16;12.95;;;1.95;;
59308;SDS011;48433;53.016;-2.260;2022-10-17T05:05:43;15.88;;;2.35;;
59308;SDS011;48433;53.016;-2.260;2022-10-17T05:08:11;11.88;;;2.25;;
59308;SDS011;48433;53.016;-2.260;2022-10-17T05:10:40;19.95;;;3.05;;
59308;SDS011;48433;53.016;-2.260;2022-10-17T05:13:10;10.27;;;2.53;;
59308;SDS011;48433;53.016;-2.260;2022-10-17T05:15:39;13.93;;;2.80;;
59308;SDS011;48433;53.016;-2.260;2022-10-17T05:18:07;15.73;;;2.85;;
59308;SDS011;48433;53.016;-2.260;2022-10-17T05:20:35;11.57;;;2.28;;
59308;SDS011;48433;53.016;-2.260;2022-10-17T05:23:05;12.88;;;2.55;;
59308;SDS011;48433;53.016;-2.260;2022-10-17T05:25:38;10.85;;;2.95;;
59308;SDS011;48433;53.016;-2.260;2022-10-17T05:28:06;7.40;;;2.63;;
59308;SDS011;48433;53.016;-2.260;2022-10-17T05:30:35;15.55;;;2.55;;
59308;SDS011;48433;53.016;-2.260;2022-10-17T05:33:05;14.23;;;3.17;;
59308;SDS011;48433;53.016;-2.260;2022-10-17T05:35:33;13.00;;;2.22;;
59308;SDS011;48433;53.016;-2.260;2022-10-17T05:38:01;16.48;;;2.30;;
59308;SDS011;48433;53.016;-2.260;2022-10-17T05:40:31;15.38;;;2.47;;
59308;SDS011;48433;53.016;-2.260;2022-10-17T05:43:00;13.82;;;2.30;;
59308;SDS011;48433;53.016;-2.260;2022-10-17T05:45:27;13.07;;;3.42;;
59308;SDS011;48433;53.016;-2.260;2022-10-17T05:47:55;15.40;;;2.90;;
59308;SDS011;48433;53.016;-2.260;2022-10-17T05:50:23;18.40;;;2.78;;
59308;SDS011;48433;53.016;-2.260;2022-10-17T05:53:01;14.80;;;2.80;;
59308;SDS011;48433;53.016;-2.260;2022-10-17T05:55:29;18.63;;;3.13;;
59308;SDS011;48433;53.016;-2.260;2022-10-17T05:57:58;16.67;;;3.03;;
59308;SDS011;48433;53.016;-2.260;2022-10-17T06:00:31;14.85;;;3.08;;
59308;SDS011;48433;53.016;-2.260;2022-10-17T06:02:59;15.07;;;3.40;;
59308;SDS011;48433;53.016;-2.260;2022-10-17T06:05:27;13.63;;;3.00;;
59308;SDS011;48433;53.016;-2.260;2022-10-17T06:07:55;15.90;;;2.92;;
59308;SDS011;48433;53.016;-2.260;2022-10-17T06:10:29;13.52;;;2.42;;
59308;SDS011;48433;53.016;-2.260;2022-10-17T06:12:58;19.25;;;3.50;;
59308;SDS011;48433;53.016;-2.260;2022-10-17T06:15:25;19.10;;;3.50;;
59308;SDS011;48433;53.016;-2.260;2022-10-17T06:17:59;12.80;;;2.53;;
59308;SDS011;48433;53.016;-2.260;2022-10-17T06:20:30;17.27;;;3.60;;
59308;SDS011;48433;53.016;-2.260;2022-10-17T06:22:57;18.17;;;3.00;;
59308;SDS011;48433;53.016;-2.260;2022-10-17T06:25:38;16.40;;;3.28;;
59308;SDS011;48433;53.016;-2.260;2022-10-17T06:28:06;19.10;;;3.85;;
59308;SDS011;48433;53.016;-2.260;2022-10-17T06:30:36;12.32;;;2.83;;
59308;SDS011;48433;53.016;-2.260;2022-10-17T06:33:05;17.13;;;3.20;;
59308;SDS011;48433;53.016;-2.260;2022-10-17T06:35:33;14.00;;;3.78;;
59308;SDS011;48433;53.016;-2.260;2022-10-17T06:38:02;15.55;;;2.85;;
59308;SDS011;48433;53.016;-2.260;2022-10-17T06:40:31;19.08;;;3.60;;
59308;SDS011;48433;53.016;-2.260;2022-10-17T06:42:59;11.82;;;2.83;;
59308;SDS011;48433;53.016;-2.260;2022-10-17T06:45:53;14.40;;;2.78;;
59308;SDS011;48433;53.016;-2.260;2022-10-17T06:48:33;10.93;;;2.80;;
59308;SDS011;48433;53.016;-2.260;2022-10-17T06:51:13;23.90;;;2.83;;
59308;SDS011;48433;53.016;-2.260;2022-10-17T06:53:51;18.80;;;3.92;;
59308;SDS011;48433;53.016;-2.260;2022-10-17T06:56:28;20.90;;;4.43;;
59308;SDS011;48433;53.016;-2.260;2022-10-17T06:59:08;14.10;;;2.95;;
59308;SDS011;48433;53.016;-2.260;2022-10-17T07:01:39;19.10;;;3.63;;
59308;SDS011;48433;53.016;-2.260;2022-10-17T07:04:13;13.70;;;3.25;;
59308;SDS011;48433;53.016;-2.260;2022-10-17T07:06:40;15.95;;;2.67;;
59308;SDS011;48433;53.016;-2.260;2022-10-17T07:09:14;18.60;;;2.95;;
59308;SDS011;48433;53.016;-2.260;2022-10-17T07:11:43;16.13;;;3.25;;
59308;SDS011;48433;53.016;-2.260;2022-10-17T07:14:15;17.77;;;3.30;;
59308;SDS011;48433;53.016;-2.260;2022-10-17T07:16:43;17.55;;;4.13;;
59308;SDS011;48433;53.016;-2.260;2022-10-17T07:19:23;19.02;;;4.90;;
59308;SDS011;48433;53.016;-2.260;2022-10-17T07:21:50;17.48;;;3.40;;
59308;SDS011;48433;53.016;-2.260;2022-10-17T07:24:19;19.75;;;3.67;;
59308;SDS011;48433;53.016;-2.260;2022-10-17T07:26:55;16.80;;;3.47;;
59308;SDS011;48433;53.016;-2.260;2022-10-17T07:29:24;16.58;;;3.08;;
59308;SDS011;48433;53.016;-2.260;2022-10-17T07:31:57;17.00;;;3.65;;
59308;SDS011;48433;53.016;-2.260;2022-10-17T07:34:25;15.65;;;3.22;;
59308;SDS011;48433;53.016;-2.260;2022-10-17T07:36:56;16.15;;;3.35;;
59308;SDS011;48433;53.016;-2.260;2022-10-17T07:39:24;20.50;;;3.65;;
59308;SDS011;48433;53.016;-2.260;2022-10-17T07:41:51;16.55;;;3.80;;
59308;SDS011;48433;53.016;-2.260;2022-10-17T07:44:21;16.17;;;3.95;;
59308;SDS011;48433;53.016;-2.260;2022-10-17T07:46:50;20.00;;;4.18;;
59308;SDS011;48433;53.016;-2.260;2022-10-17T07:49:18;20.23;;;3.75;;
59308;SDS011;48433;53.016;-2.260;2022-10-17T07:51:46;19.30;;;3.47;;
59308;SDS011;48433;53.016;-2.260;2022-10-17T07:54:15;18.27;;;3.38;;
59308;SDS011;48433;53.016;-2.260;2022-10-17T07:56:42;16.73;;;3.15;;
59308;SDS011;48433;53.016;-2.260;2022-10-17T07:59:17;18.48;;;4.00;;
59308;SDS011;48433;53.016;-2.260;2022-10-17T08:01:45;20.95;;;4.28;;
59308;SDS011;48433;53.016;-2.260;2022-10-17T08:04:12;21.40;;;3.00;;
59308;SDS011;48433;53.016;-2.260;2022-10-17T08:06:42;22.25;;;3.00;;
59308;SDS011;48433;53.016;-2.260;2022-10-17T08:09:10;24.60;;;3.95;;
59308;SDS011;48433;53.016;-2.260;2022-10-17T08:11:37;18.73;;;4.22;;
59308;SDS011;48433;53.016;-2.260;2022-10-17T08:14:05;18.33;;;3.35;;
59308;SDS011;48433;53.016;-2.260;2022-10-17T08:16:33;13.02;;;2.83;;
59308;SDS011;48433;53.016;-2.260;2022-10-17T08:19:00;16.30;;;3.38;;
59308;SDS011;48433;53.016;-2.260;2022-10-17T08:21:28;14.93;;;2.63;;
59308;SDS011;48433;53.016;-2.260;2022-10-17T08:23:56;16.92;;;4.10;;
59308;SDS011;48433;53.016;-2.260;2022-10-17T08:26:23;20.65;;;3.00;;
59308;SDS011;48433;53.016;-2.260;2022-10-17T08:28:51;13.93;;;3.15;;
59308;SDS011;48433;53.016;-2.260;2022-10-17T08:31:19;17.85;;;3.28;;
59308;SDS011;48433;53.016;-2.260;2022-10-17T08:33:48;16.35;;;3.15;;
59308;SDS011;48433;53.016;-2.260;2022-10-17T08:36:17;15.43;;;3.17;;
59308;SDS011;48433;53.016;-2.260;2022-10-17T08:38:46;12.68;;;2.83;;
59308;SDS011;48433;53.016;-2.260;2022-10-17T08:44:24;17.75;;;3.45;;
59308;SDS011;48433;53.016;-2.260;2022-10-17T08:47:01;15.68;;;3.45;;
59308;SDS011;48433;53.016;-2.260;2022-10-17T08:52:56;13.13;;;3.50;;
59308;SDS011;48433;53.016;-2.260;2022-10-17T08:55:12;12.50;;;2.80;;
59308;SDS011;48433;53.016;-2.260;2022-10-17T08:57:48;16.70;;;2.60;;
59308;SDS011;48433;53.016;-2.260;2022-10-17T09:00:17;11.75;;;2.78;;
59308;SDS011;48433;53.016;-2.260;2022-10-17T09:02:49;12.10;;;2.58;;
59308;SDS011;48433;53.016;-2.260;2022-10-17T09:14:03;11.95;;;2.42;;
59308;SDS011;48433;53.016;-2.260;2022-10-17T09:19:31;11.57;;;2.65;;
59308;SDS011;48433;53.016;-2.260;2022-10-17T09:22:05;19.05;;;3.45;;
59308;SDS011;48433;53.016;-2.260;2022-10-17T09:27:08;12.70;;;2.13;;
59308;SDS011;48433;53.016;-2.260;2022-10-17T09:29:49;9.60;;;2.40;;
59308;SDS011;48433;53.016;-2.260;2022-10-17T09:32:28;13.32;;;2.88;;
59308;SDS011;48433;53.016;-2.260;2022-10-17T09:34:56;15.50;;;2.83;;
59308;SDS011;48433;53.016;-2.260;2022-10-17T09:37:28;13.57;;;2.75;;
59308;SDS011;48433;53.016;-2.260;2022-10-17T09:39:57;9.80;;;2.53;;
59308;SDS011;48433;53.016;-2.260;2022-10-17T09:42:25;13.38;;;2.75;;
59308;SDS011;48433;53.016;-2.260;2022-10-17T09:47:33;13.05;;;3.03;;
59308;SDS011;48433;53.016;-2.260;2022-10-17T09:50:20;13.90;;;2.35;;
59308;SDS011;48433;53.016;-2.260;2022-10-17T09:52:56;17.73;;;2.97;;
59308;SDS011;48433;53.016;-2.260;2022-10-17T09:57:57;14.52;;;2.50;;
59308;SDS011;48433;53.016;-2.260;2022-10-17T10:00:30;11.87;;;2.53;;
59308;SDS011;48433;53.016;-2.260;2022-10-17T10:05:58;12.80;;;2.85;;
59308;SDS011;48433;53.016;-2.260;2022-10-17T10:08:30;11.45;;;2.08;;
59308;SDS011;48433;53.016;-2.260;2022-10-17T10:11:01;16.25;;;2.95;;
59308;SDS011;48433;53.016;-2.260;2022-10-17T10:13:35;14.27;;;2.63;;
59308;SDS011;48433;53.016;-2.260;2022-10-17T10:16:13;9.35;;;2.53;;
59308;SDS011;48433;53.016;-2.260;2022-10-17T10:18:47;9.25;;;2.22;;
59308;SDS011;48433;53.016;-2.260;2022-10-17T10:21:18;8.60;;;2.38;;
59308;SDS011;48433;53.016;-2.260;2022-10-17T10:24:04;13.88;;;1.95;;
59308;SDS011;48433;53.016;-2.260;2022-10-17T10:26:44;15.07;;;2.42;;
59308;SDS011;48433;53.016;-2.260;2022-10-17T10:29:25;13.88;;;2.53;;
59308;SDS011;48433;53.016;-2.260;2022-10-17T10:31:58;8.18;;;2.15;;
59308;SDS011;48433;53.016;-2.260;2022-10-17T10:34:34;12.10;;;2.33;;
59308;SDS011;48433;53.016;-2.260;2022-10-17T10:37:13;8.65;;;2.10;;
59308;SDS011;48433;53.016;-2.260;2022-10-17T10:39:48;11.88;;;2.70;;
59308;SDS011;48433;53.016;-2.260;2022-10-17T10:42:25;11.75;;;2.88;;
59308;SDS011;48433;53.016;-2.260;2022-10-17T10:44:54;14.30;;;2.45;;
59308;SDS011;48433;53.016;-2.260;2022-10-17T10:48:03;10.23;;;2.13;;
59308;SDS011;48433;53.016;-2.260;2022-10-17T10:50:38;11.27;;;2.72;;
59308;SDS011;48433;53.016;-2.260;2022-10-17T10:53:36;10.48;;;2.50;;
59308;SDS011;48433;53.016;-2.260;2022-10-17T10:58:46;8.43;;;2.22;;
59308;SDS011;48433;53.016;-2.260;2022-10-17T11:01:32;11.20;;;1.70;;
59308;SDS011;48433;53.016;-2.260;2022-10-17T11:06:44;10.18;;;2.25;;
59308;SDS011;48433;53.016;-2.260;2022-10-17T11:12:01;9.32;;;2.17;;
59308;SDS011;48433;53.016;-2.260;2022-10-17T11:17:31;13.30;;;2.63;;
59308;SDS011;48433;53.016;-2.260;2022-10-17T11:20:31;14.95;;;2.67;;
59308;SDS011;48433;53.016;-2.260;2022-10-17T11:23:13;10.38;;;2.13;;
59308;SDS011;48433;53.016;-2.260;2022-10-17T11:25:59;10.85;;;2.55;;
59308;SDS011;48433;53.016;-2.260;2022-10-17T11:28:31;12.38;;;2.58;;
59308;SDS011;48433;53.016;-2.260;2022-10-17T11:33:44;13.85;;;2.38;;
59308;SDS011;48433;53.016;-2.260;2022-10-17T11:36:17;10.85;;;1.90;;
59308;SDS011;48433;53.016;-2.260;2022-10-17T11:41:30;8.18;;;2.33;;
59308;SDS011;48433;53.016;-2.260;2022-10-17T11:44:18;12.93;;;2.40;;
59308;SDS011;48433;53.016;-2.260;2022-10-17T11:47:01;12.55;;;2.40;;
59308;SDS011;48433;53.016;-2.260;2022-10-17T11:49:51;8.55;;;1.52;;
59308;SDS011;48433;53.016;-2.260;2022-10-17T12:00:59;9.38;;;1.85;;
59308;SDS011;48433;53.016;-2.260;2022-10-17T12:10:01;11.40;;;2.30;;
59308;SDS011;48433;53.016;-2.260;2022-10-17T12:12:34;12.52;;;2.65;;
59308;SDS011;48433;53.016;-2.260;2022-10-17T12:17:56;11.38;;;2.70;;
59308;SDS011;48433;53.016;-2.260;2022-10-17T12:21:11;12.77;;;2.55;;
59308;SDS011;48433;53.016;-2.260;2022-10-17T12:23:24;11.88;;;3.08;;
59308;SDS011;48433;53.016;-2.260;2022-10-17T12:26:00;10.77;;;2.33;;
59308;SDS011;48433;53.016;-2.260;2022-10-17T12:28:32;8.90;;;2.50;;
59308;SDS011;48433;53.016;-2.260;2022-10-17T12:38:43;9.10;;;2.08;;
59308;SDS011;48433;53.016;-2.260;2022-10-17T12:41:16;8.70;;;2.72;;
59308;SDS011;48433;53.016;-2.260;2022-10-17T12:52:23;9.20;;;2.10;;
59308;SDS011;48433;53.016;-2.260;2022-10-17T13:03:41;11.23;;;2.67;;
59308;SDS011;48433;53.016;-2.260;2022-10-17T13:06:15;10.75;;;2.55;;
59308;SDS011;48433;53.016;-2.260;2022-10-17T13:08:49;11.20;;;2.45;;
59308;SDS011;48433;53.016;-2.260;2022-10-17T13:11:30;8.52;;;2.17;;
59308;SDS011;48433;53.016;-2.260;2022-10-17T13:14:01;12.60;;;2.20;;
59308;SDS011;48433;53.016;-2.260;2022-10-17T13:16:34;9.25;;;2.10;;
59308;SDS011;48433;53.016;-2.260;2022-10-17T13:19:11;11.25;;;2.20;;
59308;SDS011;48433;53.016;-2.260;2022-10-17T13:22:01;13.32;;;2.63;;
59308;SDS011;48433;53.016;-2.260;2022-10-17T13:24:34;12.88;;;2.25;;
59308;SDS011;48433;53.016;-2.260;2022-10-17T13:27:04;11.43;;;2.35;;
59308;SDS011;48433;53.016;-2.260;2022-10-17T13:29:47;10.50;;;2.00;;
59308;SDS011;48433;53.016;-2.260;2022-10-17T13:32:15;8.45;;;1.83;;
59308;SDS011;48433;53.016;-2.260;2022-10-17T13:34:42;9.27;;;2.75;;
59308;SDS011;48433;53.016;-2.260;2022-10-17T13:37:11;10.00;;;2.20;;
59308;SDS011;48433;53.016;-2.260;2022-10-17T13:42:23;11.27;;;2.15;;
59308;SDS011;48433;53.016;-2.260;2022-10-17T13:44:54;10.23;;;2.38;;
59308;SDS011;48433;53.016;-2.260;2022-10-17T13:47:24;14.98;;;3.30;;
59308;SDS011;48433;53.016;-2.260;2022-10-17T13:49:58;9.38;;;2.30;;
59308;SDS011;48433;53.016;-2.260;2022-10-17T13:52:27;12.93;;;2.40;;
59308;SDS011;48433;53.016;-2.260;2022-10-17T13:55:13;12.65;;;2.90;;
59308;SDS011;48433;53.016;-2.260;2022-10-17T13:57:43;12.00;;;2.80;;
59308;SDS011;48433;53.016;-2.260;2022-10-17T14:00:18;8.05;;;1.90;;
59308;SDS011;48433;53.016;-2.260;2022-10-17T14:02:47;5.53;;;1.35;;
59308;SDS011;48433;53.016;-2.260;2022-10-17T14:05:19;10.55;;;1.92;;
59308;SDS011;48433;53.016;-2.260;2022-10-17T14:07:52;8.93;;;2.20;;
59308;SDS011;48433;53.016;-2.260;2022-10-17T14:10:43;7.50;;;1.77;;
59308;SDS011;48433;53.016;-2.260;2022-10-17T14:13:18;11.65;;;1.83;;
59308;SDS011;48433;53.016;-2.260;2022-10-17T14:15:48;10.52;;;1.80;;
59308;SDS011;48433;53.016;-2.260;2022-10-17T14:18:19;9.38;;;1.88;;
59308;SDS011;48433;53.016;-2.260;2022-10-17T14:21:00;11.73;;;2.03;;
59308;SDS011;48433;53.016;-2.260;2022-10-17T14:23:49;9.25;;;1.80;;
59308;SDS011;48433;53.016;-2.260;2022-10-17T14:26:20;8.10;;;1.80;;
59308;SDS011;48433;53.016;-2.260;2022-10-17T14:28:50;9.80;;;1.85;;
59308;SDS011;48433;53.016;-2.260;2022-10-17T14:31:31;7.20;;;1.70;;
59308;SDS011;48433;53.016;-2.260;2022-10-17T14:34:01;9.43;;;2.45;;
59308;SDS011;48433;53.016;-2.260;2022-10-17T14:36:35;7.68;;;1.77;;
59308;SDS011;48433;53.016;-2.260;2022-10-17T14:39:05;6.10;;;1.65;;
59308;SDS011;48433;53.016;-2.260;2022-10-17T14:41:41;9.40;;;1.88;;
59308;SDS011;48433;53.016;-2.260;2022-10-17T14:47:13;7.38;;;1.88;;
59308;SDS011;48433;53.016;-2.260;2022-10-17T14:52:38;6.15;;;1.83;;
59308;SDS011;48433;53.016;-2.260;2022-10-17T14:58:28;8.73;;;2.00;;
59308;SDS011;48433;53.016;-2.260;2022-10-17T15:00:58;8.75;;;1.80;;
59308;SDS011;48433;53.016;-2.260;2022-10-17T15:03:28;9.20;;;1.85;;
59308;SDS011;48433;53.016;-2.260;2022-10-17T15:05:56;9.23;;;2.22;;
59308;SDS011;48433;53.016;-2.260;2022-10-17T15:08:24;8.18;;;1.88;;
59308;SDS011;48433;53.016;-2.260;2022-10-17T15:10:51;9.90;;;2.22;;
59308;SDS011;48433;53.016;-2.260;2022-10-17T15:13:19;8.60;;;1.90;;
59308;SDS011;48433;53.016;-2.260;2022-10-17T15:15:58;7.03;;;1.60;;
59308;SDS011;48433;53.016;-2.260;2022-10-17T15:18:25;11.32;;;2.33;;
59308;SDS011;48433;53.016;-2.260;2022-10-17T15:20:53;8.00;;;1.65;;
59308;SDS011;48433;53.016;-2.260;2022-10-17T15:23:38;7.25;;;2.10;;
59308;SDS011;48433;53.016;-2.260;2022-10-17T15:26:22;7.80;;;1.92;;
59308;SDS011;48433;53.016;-2.260;2022-10-17T15:28:52;8.02;;;1.70;;
59308;SDS011;48433;53.016;-2.260;2022-10-17T15:31:21;9.88;;;2.63;;
59308;SDS011;48433;53.016;-2.260;2022-10-17T15:33:50;6.70;;;2.08;;
59308;SDS011;48433;53.016;-2.260;2022-10-17T15:36:19;8.10;;;2.65;;
59308;SDS011;48433;53.016;-2.260;2022-10-17T15:38:59;6.13;;;1.70;;
59308;SDS011;48433;53.016;-2.260;2022-10-17T15:41:28;8.88;;;2.05;;
59308;SDS011;48433;53.016;-2.260;2022-10-17T15:43:57;8.13;;;1.77;;
59308;SDS011;48433;53.016;-2.260;2022-10-17T15:46:27;9.43;;;2.20;;
59308;SDS011;48433;53.016;-2.260;2022-10-17T15:48:56;9.60;;;2.22;;
59308;SDS011;48433;53.016;-2.260;2022-10-17T15:51:29;6.78;;;2.10;;
59308;SDS011;48433;53.016;-2.260;2022-10-17T15:53:57;9.15;;;2.17;;
59308;SDS011;48433;53.016;-2.260;2022-10-17T15:56:28;9.27;;;2.47;;
59308;SDS011;48433;53.016;-2.260;2022-10-17T15:59:10;9.07;;;1.58;;
59308;SDS011;48433;53.016;-2.260;2022-10-17T16:01:41;12.02;;;1.92;;
59308;SDS011;48433;53.016;-2.260;2022-10-17T16:04:10;9.15;;;1.80;;
59308;SDS011;48433;53.016;-2.260;2022-10-17T16:06:43;8.77;;;2.05;;
59308;SDS011;48433;53.016;-2.260;2022-10-17T16:09:11;9.65;;;2.15;;
59308;SDS011;48433;53.016;-2.260;2022-10-17T16:11:40;7.13;;;2.35;;
59308;SDS011;48433;53.016;-2.260;2022-10-17T16:14:10;12.45;;;2.45;;
59308;SDS011;48433;53.016;-2.260;2022-10-17T16:16:39;8.07;;;1.67;;
59308;SDS011;48433;53.016;-2.260;2022-10-17T16:19:07;11.90;;;2.10;;
59308;SDS011;48433;53.016;-2.260;2022-10-17T16:21:36;8.93;;;1.73;;
59308;SDS011;48433;53.016;-2.260;2022-10-17T16:24:05;11.17;;;1.93;;
59308;SDS011;48433;53.016;-2.260;2022-10-17T16:26:36;11.02;;;2.30;;
59308;SDS011;48433;53.016;-2.260;2022-10-17T16:29:04;6.28;;;1.77;;
59308;SDS011;48433;53.016;-2.260;2022-10-17T16:31:33;8.20;;;1.65;;
59308;SDS011;48433;53.016;-2.260;2022-10-17T16:34:02;7.75;;;1.80;;
59308;SDS011;48433;53.016;-2.260;2022-10-17T16:36:32;7.07;;;1.70;;
59308;SDS011;48433;53.016;-2.260;2022-10-17T16:39:00;12.38;;;2.72;;
59308;SDS011;48433;53.016;-2.260;2022-10-17T16:41:29;6.63;;;2.00;;
59308;SDS011;48433;53.016;-2.260;2022-10-17T16:43:59;9.10;;;2.10;;
59308;SDS011;48433;53.016;-2.260;2022-10-17T16:46:29;9.55;;;1.83;;
59308;SDS011;48433;53.016;-2.260;2022-10-17T16:48:58;11.27;;;2.67;;
59308;SDS011;48433;53.016;-2.260;2022-10-17T16:51:26;10.20;;;2.15;;
59308;SDS011;48433;53.016;-2.260;2022-10-17T16:53:55;8.68;;;1.88;;
59308;SDS011;48433;53.016;-2.260;2022-10-17T16:56:26;8.60;;;2.72;;
59308;SDS011;48433;53.016;-2.260;2022-10-17T16:58:55;11.43;;;2.65;;
59308;SDS011;48433;53.016;-2.260;2022-10-17T17:01:23;9.52;;;2.22;;
59308;SDS011;48433;53.016;-2.260;2022-10-17T17:03:52;8.25;;;2.15;;
59308;SDS011;48433;53.016;-2.260;2022-10-17T17:06:21;16.13;;;2.55;;
59308;SDS011;48433;53.016;-2.260;2022-10-17T17:08:52;8.50;;;1.85;;
59308;SDS011;48433;53.016;-2.260;2022-10-17T17:11:21;8.60;;;1.95;;
59308;SDS011;48433;53.016;-2.260;2022-10-17T17:13:50;11.35;;;2.72;;